This is the latest recevied weather packets stored in our database for station/object K0UND-1. If no packets are shown the sender has not sent any weather packets the latest 10 day(s).
| Time | Temp. | Humidity | Pressure | Rain* | Wind** | Luminosity | Snow |
|---|---|---|---|---|---|---|---|
| 1777780809 | 11.11° C | 58% | 1008.5 hPa | 0 mm | - | - | - |
| 1777773619 | 15° C | 45% | 1006.4 hPa | 0 mm | - | - | - |
| 1777770010 | 17.78° C | 39% | 1005.4 hPa | 0 mm | - | - | - |
| 1777766413 | 21.11° C | 26% | 1004.7 hPa | 0 mm | - | - | - |
| 1777762806 | 22.22° C | 25% | 1004.4 hPa | 0 mm | - | - | - |
| 1777759208 | 23.89° C | 21% | 1004.7 hPa | 0 mm | - | - | - |
| 1777755605 | 22.22° C | 25% | 1005.8 hPa | 0 mm | - | - | - |
| 1777752008 | 21.11° C | 26% | 1007.1 hPa | 0 mm | - | - | - |
| 1777748407 | 18.89° C | 28% | 1008.5 hPa | 0 mm | - | - | - |
| 1777744810 | 17.78° C | 28% | 1009.5 hPa | 0 mm | - | - | - |
| 1777741206 | 17.78° C | 26% | 1009.5 hPa | 0 mm | - | - | - |
| 1777737608 | 17.22° C | 29% | 1010.5 hPa | 0 mm | - | - | - |
| 1777734004 | 12.78° C | 44% | 1010.8 hPa | 0 mm | - | - | - |
| 1777730409 | 8.89° C | 50% | 1011.9 hPa | 0 mm | - | - | - |
| 1777726807 | 5° C | 61% | 1012.5 hPa | 0 mm | - | - | - |
| 1777723211 | 2.78° C | 70% | 1012.9 hPa | 0 mm | - | - | - |
| 1777719610 | 2.22° C | 69% | 1013.2 hPa | 0 mm | - | - | - |
| 1777716011 | 2.22° C | 64% | 1014.2 hPa | 0 mm | - | - | - |
| 1777712407 | 2.22° C | 64% | 1014.9 hPa | 0 mm | - | - | - |
| 1777708809 | 2.78° C | 60% | 1015.9 hPa | 0 mm | - | - | - |
| 1777705211 | 2.22° C | 64% | 1016.6 hPa | 0 mm | - | - | - |
| 1777701610 | 2.22° C | 64% | 1016.9 hPa | 0 mm | - | - | - |
| 1777698008 | 2.22° C | 60% | 1017.3 hPa | 0 mm | - | - | - |
| 1777694408 | 2.78° C | 52% | 1017.3 hPa | 0 mm | - | - | - |
| 1777690805 | 6.11° C | 49% | 1017.6 hPa | 0 mm | - | - | - |
* Rain latest hour (hover to see other rain measurements)
** Current wind speed in m/s (hover to see current wind gust speed)